Terminal Aerodrome Forecast
Issued by NWS

Home | Current Version | Previous Version | Text Only | Print | Product List | Glossary On
Versions: 1 2 3 4 5 6 7 8 9 10 11 12 13 14
000
FTUS46 KSEW 062320
TAFBLI
TAF
KBLI 062320Z 0700/0724 29008KT P6SM SKC
     FM070300 VRB03KT P6SM SKC
     FM071600 17006KT P6SM FEW250
     FM072000 19008KT P6SM SCT200=

USA.gov is the U.S. government's official web portal to all federal, state and local government web resources and services.